createdAt,value
2023-05-24T00:11:28.447Z,16.49
2023-05-24T00:26:30.631Z,16.22
2023-05-24T00:41:32.760Z,16.11
2023-05-24T00:56:35.057Z,15.78
2023-05-24T01:11:52.200Z,15.53
2023-05-24T01:27:14.893Z,15.31
2023-05-24T01:42:42.430Z,15.01
2023-05-24T01:57:48.576Z,14.64
2023-05-24T02:12:50.807Z,14.29
2023-05-24T02:27:52.914Z,14.02
2023-05-24T02:42:55.045Z,14.06
2023-05-24T02:57:57.089Z,14.22
2023-05-24T03:12:59.081Z,14.33
2023-05-24T03:28:02.822Z,14.48
2023-05-24T03:43:04.850Z,14.74
2023-05-24T03:58:06.935Z,15.18
2023-05-24T04:13:09.368Z,17.07
2023-05-24T04:28:11.391Z,18.72
2023-05-24T04:43:13.408Z,19.86
2023-05-24T04:58:16.311Z,19.02
2023-05-24T05:13:18.382Z,19.20
2023-05-24T05:28:20.546Z,19.89
2023-05-24T05:43:22.775Z,19.68
2023-05-24T05:58:25.051Z,20.70
2023-05-24T06:13:28.674Z,21.40
2023-05-24T06:28:30.716Z,22.02
2023-05-24T06:43:33.644Z,22.28
2023-05-24T06:58:36.806Z,22.28
2023-05-24T07:13:39.338Z,22.74
2023-05-24T07:28:41.857Z,23.13
2023-05-24T07:43:44.063Z,22.88
2023-05-24T07:58:47.175Z,23.32
2023-05-24T08:13:49.481Z,23.10
2023-05-24T08:28:51.837Z,22.53
2023-05-24T08:44:01.618Z,22.79
2023-05-24T08:59:03.802Z,23.73
2023-05-24T09:14:05.994Z,25.17
2023-05-24T09:29:09.681Z,24.99
2023-05-24T09:44:15.503Z,24.92
2023-05-24T09:59:18.949Z,24.38
2023-05-24T10:14:22.138Z,24.00
2023-05-24T10:29:59.460Z,23.66
2023-05-24T10:45:25.307Z,23.13
2023-05-24T11:15:35.088Z,23.93
2023-05-24T11:30:47.944Z,24.68
2023-05-24T11:45:52.258Z,25.26
2023-05-24T12:00:54.348Z,25.81
2023-05-24T12:15:58.494Z,26.13
2023-05-24T12:31:00.643Z,26.59
2023-05-24T12:46:03.630Z,27.16
2023-05-24T13:01:05.942Z,26.67
2023-05-24T13:16:09.265Z,26.40
2023-05-24T13:31:14.265Z,26.13
2023-05-24T13:46:16.459Z,25.71
2023-05-24T14:01:18.609Z,25.48
2023-05-24T14:16:20.980Z,25.05
2023-05-24T14:31:23.489Z,25.36
2023-05-24T14:46:25.805Z,26.05
2023-05-24T15:01:28.024Z,26.61
2023-05-24T15:16:30.328Z,27.04
2023-05-24T15:31:32.793Z,27.39
2023-05-24T15:46:36.860Z,27.05
2023-05-24T16:01:39.034Z,25.64
2023-05-24T16:16:42.365Z,24.67
2023-05-24T16:31:44.600Z,23.80
2023-05-24T16:46:47.163Z,21.36
2023-05-24T17:01:50.970Z,20.03
2023-05-24T17:16:53.158Z,19.34
2023-05-24T17:31:55.344Z,19.53
2023-05-24T17:47:00.110Z,19.26
2023-05-24T18:02:02.586Z,19.02
2023-05-24T18:17:05.188Z,18.21
2023-05-24T18:32:07.473Z,17.72
2023-05-24T18:47:11.201Z,17.72
2023-05-24T19:02:13.858Z,17.86
2023-05-24T19:17:16.085Z,17.83
2023-05-24T19:32:20.662Z,17.87
2023-05-24T19:47:22.838Z,17.79
2023-05-24T20:02:25.147Z,17.72
2023-05-24T20:17:27.531Z,17.61
2023-05-24T20:32:29.980Z,17.48
2023-05-24T20:47:32.525Z,17.49
2023-05-24T21:02:34.945Z,17.31
2023-05-24T21:17:38.413Z,17.21
2023-05-24T21:32:40.721Z,17.15
2023-05-24T21:47:43.178Z,16.86
2023-05-24T22:02:45.319Z,16.65
2023-05-24T22:17:48.571Z,16.42
2023-05-24T22:32:51.335Z,16.08
2023-05-24T22:47:54.422Z,15.86
2023-05-24T23:02:56.461Z,15.49
2023-05-24T23:17:58.603Z,15.25
2023-05-24T23:33:00.819Z,15.04
2023-05-24T23:48:02.856Z,14.70
